Time;durP1;ratioP1;P1;durP2;ratioP2;P2;SDS_P1;SDS_P2;PMS_P1;PMS_P2;Temp;Humidity;BMP_temperature;BMP_pressure;BME280_temperature;BME280_humidity;BME280_pressure;Samples;Min_cycle;Max_cycle;Signal;HPM_P1;HPM_P2
2022/12/07 07:30:34;;;;;;;;;31.00;24.75;;;;;4.09;100.00;101857.75;5447961;23;50286;-75
2022/12/07 07:33:03;;;;;;;;;39.75;32.50;;;;;4.49;100.00;101934.00;4912449;28;50012;-71
2022/12/07 07:35:31;;;;;;;;;32.25;29.25;;;;;4.24;100.00;101863.91;4939118;28;50135;-72
2022/12/07 07:37:56;;;;;;;;;27.75;26.00;;;;;4.61;100.00;101924.34;4945937;28;50969;-71
2022/12/07 07:40:22;;;;;;;;;28.50;27.75;;;;;3.66;100.00;101792.63;4942651;28;50318;-71
2022/12/07 07:42:48;;;;;;;;;35.00;31.50;;;;;4.19;100.00;101862.75;4939822;28;49811;-70
2022/12/07 07:45:14;;;;;;;;;35.00;32.25;;;;;4.28;100.00;101878.94;4936842;28;49638;-70
2022/12/07 07:47:39;;;;;;;;;39.25;30.25;;;;;4.63;100.00;101930.53;4943961;28;50071;-70
2022/12/07 07:50:05;;;;;;;;;37.75;33.75;;;;;4.66;100.00;101937.66;4937192;28;49755;-71
2022/12/07 07:52:31;;;;;;;;;37.50;32.00;;;;;4.63;100.00;101930.53;4932380;28;49616;-70
2022/12/07 07:54:56;;;;;;;;;33.00;30.00;;;;;4.68;100.00;101928.25;4937884;28;49551;-70
2022/12/07 07:57:21;;;;;;;;;46.75;37.00;;;;;4.68;100.00;101936.06;4932636;28;49676;-70
2022/12/07 07:59:47;;;;;;;;;31.00;26.50;;;;;4.71;100.00;101936.25;4932503;28;49984;-71
2022/12/07 08:02:14;;;;;;;;;35.75;34.25;;;;;3.16;100.00;101660.47;4932322;28;49909;-70
2022/12/07 08:04:40;;;;;;;;;44.00;37.50;;;;;4.75;100.00;101946.06;4938826;28;49784;-70
2022/12/07 08:07:05;;;;;;;;;41.50;33.00;;;;;4.73;100.00;101937.22;4933361;28;50020;-70
2022/12/07 08:09:31;;;;;;;;;42.25;40.00;;;;;4.19;100.00;101828.97;4932472;28;49701;-70
2022/12/07 08:11:57;;;;;;;;;44.00;39.00;;;;;4.82;100.00;101930.91;4932368;28;49719;-70
2022/12/07 08:14:22;;;;;;;;;45.75;42.75;;;;;4.80;100.00;101921.22;4933521;28;49749;-70
2022/12/07 08:16:47;;;;;;;;;41.25;37.50;;;;;4.80;100.00;101929.91;4932510;28;49790;-70
2022/12/07 08:19:13;;;;;;;;;50.00;38.25;;;;;4.86;100.00;101943.31;4938613;28;49781;-71
2022/12/07 08:21:38;;;;;;;;;46.50;40.25;;;;;4.79;100.00;101922.00;4931982;28;55479;-72
2022/12/07 08:24:04;;;;;;;;;51.75;41.50;;;;;4.91;100.00;101945.28;4935300;28;49630;-71
2022/12/07 08:26:29;;;;;;;;;41.25;38.50;;;;;5.03;100.00;101944.38;4936007;28;49971;-70
2022/12/07 08:28:55;;;;;;;;;38.75;37.75;;;;;4.97;100.00;101927.47;4946524;28;49904;-71
2022/12/07 08:31:20;;;;;;;;;43.50;38.75;;;;;5.00;100.00;101931.16;4948549;28;49907;-71
2022/12/07 08:33:47;;;;;;;;;41.25;38.25;;;;;5.16;100.00;101956.44;4936208;28;49991;-71
2022/12/07 08:36:13;;;;;;;;;43.25;38.25;;;;;5.24;100.00;101951.69;4932296;28;49696;-71
2022/12/07 08:38:40;;;;;;;;;42.25;41.25;;;;;4.71;100.00;101856.50;4932607;28;50046;-70
2022/12/07 08:41:06;;;;;;;;;47.50;40.25;;;;;5.32;100.00;101955.69;4931980;28;49802;-70
2022/12/07 08:43:33;;;;;;;;;51.50;40.75;;;;;5.34;100.00;101954.06;4934559;28;49674;-71
2022/12/07 08:46:04;;;;;;;;;50.25;41.00;;;;;5.26;100.00;101935.34;4934366;28;49750;-70
2022/12/07 08:48:30;;;;;;;;;43.50;38.25;;;;;5.34;100.00;101941.03;4932295;28;49721;-70
2022/12/07 08:50:56;;;;;;;;;47.50;39.75;;;;;5.02;100.00;101887.94;4931984;28;50894;-70
2022/12/07 08:53:22;;;;;;;;;50.25;41.75;;;;;5.49;100.00;101962.78;4932076;28;49783;-70
2022/12/07 08:55:48;;;;;;;;;48.75;39.25;;;;;5.54;100.00;101955.25;4948928;28;49869;-69
2022/12/07 08:58:14;;;;;;;;;49.50;39.75;;;;;5.57;100.00;101971.94;4932085;28;50099;-68
2022/12/07 09:00:39;;;;;;;;;52.25;40.50;;;;;5.55;100.00;101955.34;4934674;28;49808;-69
2022/12/07 09:03:04;;;;;;;;;41.00;36.00;;;;;5.43;100.00;101921.66;4931756;28;49750;-69
2022/12/07 09:05:32;;;;;;;;;39.75;37.50;;;;;5.47;100.00;101920.13;4936475;28;49863;-75
2022/12/07 09:08:01;;;;;;;;;31.00;30.50;;;;;5.32;100.00;101882.78;4932976;28;49885;-69
2022/12/07 09:10:26;;;;;;;;;39.25;35.25;;;;;5.25;100.00;101867.56;4931394;28;49776;-69
2022/12/07 09:12:52;;;;;;;;;48.50;40.75;;;;;5.51;100.00;101898.69;4931803;28;49636;-68
2022/12/07 09:15:17;;;;;;;;;53.00;41.75;;;;;5.44;100.00;101875.66;4948866;28;49766;-68
2022/12/07 09:17:42;;;;;;;;;41.00;35.75;;;;;5.68;100.00;101917.88;4953242;28;49856;-68
2022/12/07 09:20:08;;;;;;;;;37.50;35.00;;;;;5.74;100.00;101915.66;4940900;28;50764;-69
2022/12/07 09:22:34;;;;;;;;;47.50;41.00;;;;;5.85;100.00;101919.78;4941935;28;49809;-69
2022/12/07 09:24:59;;;;;;;;;48.75;40.75;;;;;6.02;100.00;101952.97;4933837;28;49685;-68
2022/12/07 09:27:26;;;;;;;;;40.50;37.75;;;;;5.92;100.00;101944.53;4935125;28;49935;-68
2022/12/07 09:29:52;;;;;;;;;54.00;43.00;;;;;5.64;100.00;101877.75;4934244;28;49978;-68
2022/12/07 09:32:17;;;;;;;;;40.75;36.25;;;;;6.05;100.00;101939.19;4934856;28;49841;-68
2022/12/07 09:34:43;;;;;;;;;42.75;36.25;;;;;5.69;100.00;101868.50;4934975;28;49940;-68
2022/12/07 09:37:08;;;;;;;;;43.00;39.25;;;;;6.17;100.00;101933.78;4935003;28;49813;-69
2022/12/07 09:39:34;;;;;;;;;30.25;29.00;;;;;6.20;100.00;101934.88;4934742;28;50064;-69
2022/12/07 09:42:03;;;;;;;;;41.75;39.50;;;;;6.36;100.00;101947.06;4934335;28;49821;-68
2022/12/07 09:44:29;;;;;;;;;50.25;38.25;;;;;6.24;100.00;101923.81;4934409;28;50527;-69
2022/12/07 09:46:56;;;;;;;;;43.25;36.25;;;;;6.21;100.00;101912.31;4935098;28;49718;-70
2022/12/07 09:49:25;;;;;;;;;47.75;41.50;;;;;6.40;100.00;101942.94;4939907;28;50154;-69
2022/12/07 09:52:01;;;;;;;;;41.75;35.75;;;;;6.15;100.00;101897.19;4934485;28;49666;-69
2022/12/07 09:54:28;;;;;;;;;48.50;36.50;;;;;6.04;100.00;101872.25;4934673;28;50136;-70
2022/12/07 09:56:53;;;;;;;;;41.75;38.00;;;;;6.50;100.00;101934.81;4934671;28;50004;-71
2022/12/07 09:59:19;;;;;;;;;54.00;42.00;;;;;6.55;100.00;101935.94;4933701;28;49880;-71
2022/12/07 10:01:47;;;;;;;;;49.25;42.25;;;;;6.59;100.00;101936.22;4934354;28;49836;-71
2022/12/07 10:04:21;;;;;;;;;48.50;41.00;;;;;6.62;100.00;101930.25;4934704;28;49695;-71
2022/12/07 10:06:47;;;;;;;;;43.50;38.50;;;;;6.41;100.00;101905.59;4934560;28;49801;-72
2022/12/07 10:09:18;;;;;;;;;43.00;38.75;;;;;6.69;100.00;101929.78;4934570;28;50138;-72
2022/12/07 10:12:04;;;;;;;;;53.00;41.00;;;;;6.79;100.00;101941.63;4934371;28;49616;-70
2022/12/07 10:14:32;;;;;;;;;39.25;36.50;;;;;6.61;100.00;101894.56;4934036;28;49780;-70
2022/12/07 10:16:58;;;;;;;;;45.50;41.50;;;;;6.30;100.00;101838.09;4937351;28;49752;-70
2022/12/07 10:19:33;;;;;;;;;51.00;41.25;;;;;6.89;100.00;101926.56;4936723;28;49759;-71
2022/12/07 10:22:13;;;;;;;;;51.00;41.25;;;;;6.82;100.00;101918.31;4939208;28;49709;-71
2022/12/07 10:24:42;;;;;;;;;53.00;41.50;;;;;6.85;100.00;101903.72;4939544;28;49904;-71
2022/12/07 10:27:19;;;;;;;;;48.00;41.75;;;;;7.02;100.00;101917.66;4933317;28;49889;-69
2022/12/07 10:29:52;;;;;;;;;55.75;41.50;;;;;6.74;100.00;101864.78;4933088;28;52885;-70
2022/12/07 10:32:17;;;;;;;;;58.50;42.50;;;;;7.13;100.00;101918.22;4937044;28;49951;-71
2022/12/07 10:34:43;;;;;;;;;43.00;39.25;;;;;7.25;100.00;101916.28;4943953;28;49644;-71
2022/12/07 10:37:09;;;;;;;;;49.25;41.00;;;;;7.34;100.00;101910.66;4934063;28;49949;-71
2022/12/07 10:39:54;;;;;;;;;53.50;42.50;;;;;7.44;100.00;101903.38;4933748;28;53218;-70
2022/12/07 10:42:23;;;;;;;;;46.00;38.00;;;;;7.55;100.00;101903.00;4948592;28;49902;-70
2022/12/07 10:45:06;;;;;;;;;57.25;41.75;;;;;7.58;100.00;101900.53;4934160;28;49613;-71
2022/12/07 10:47:40;;;;;;;;;53.00;42.00;;;;;7.63;100.00;101899.09;4932891;28;49789;-70
2022/12/07 10:50:08;;;;;;;;;47.00;41.75;;;;;7.69;100.00;101891.53;4964476;28;51644;-70
2022/12/07 10:52:50;;;;;;;;;50.75;41.75;;;;;7.78;100.00;101878.03;4935049;28;49846;-71
2022/12/07 10:55:21;;;;;;;;;47.75;41.75;;;;;7.80;100.00;101872.03;4939022;28;49830;-70
2022/12/07 10:58:25;;;;;;;;;52.75;40.00;;;;;7.83;100.00;101864.38;4933603;28;49588;-71
2022/12/07 11:01:05;;;;;;;;;45.50;40.75;;;;;8.00;100.00;101862.56;4934754;28;49786;-70
2022/12/07 11:03:40;;;;;;;;;46.75;41.50;;;;;7.99;100.00;101859.06;4933475;28;49821;-69
2022/12/07 11:06:20;;;;;;;;;44.50;39.25;;;;;8.05;100.00;101858.47;4933333;28;49822;-70
2022/12/07 11:08:46;;;;;;;;;45.75;39.75;;;;;8.07;100.00;101855.91;4935305;28;49996;-69
2022/12/07 11:11:25;;;;;;;;;59.00;42.50;;;;;7.90;100.00;101818.50;4933333;28;49933;-72
2022/12/07 11:14:23;;;;;;;;;41.75;35.00;;;;;8.06;100.00;101844.56;4931730;28;49817;-71
2022/12/07 11:17:12;;;;;;;;;41.50;40.00;;;;;8.03;100.00;101836.59;4908727;28;49826;-65
2022/12/07 11:20:16;;;;;;;;;47.75;40.50;;;;;8.01;100.00;101830.38;4956534;28;49574;-70
2022/12/07 11:22:53;;;;;;;;;46.25;39.25;;;;;7.88;100.00;101833.22;4943090;28;50434;-70
2022/12/07 11:25:49;;;;;;;;;38.50;37.00;;;;;7.80;100.00;101819.75;4944881;28;49842;-69
2022/12/07 11:28:53;;;;;;;;;39.00;32.00;;;;;7.80;100.00;101817.16;4946902;28;49454;-67
2022/12/07 11:31:46;;;;;;;;;43.75;39.00;;;;;7.68;100.00;101809.63;4942694;28;49902;-68
2022/12/07 11:34:49;;;;;;;;;46.00;37.25;;;;;7.50;100.00;101803.47;4938077;28;50620;-70
2022/12/07 11:37:21;;;;;;;;;40.50;39.00;;;;;7.46;100.00;101794.59;4932965;28;49711;-70
2022/12/07 11:39:56;;;;;;;;;43.25;39.50;;;;;7.15;100.00;101757.31;4933012;28;49818;-76
2022/12/07 11:42:26;;;;;;;;;38.50;36.75;;;;;7.46;100.00;101799.81;4933404;28;49889;-72
2022/12/07 11:45:01;;;;;;;;;49.00;41.00;;;;;7.55;100.00;101809.84;4932317;28;50015;-69
2022/12/07 11:47:47;;;;;;;;;43.00;39.75;;;;;7.51;100.00;101809.59;4932972;28;49786;-75
2022/12/07 11:50:39;;;;;;;;;55.00;41.00;;;;;7.46;100.00;101804.16;4933034;28;49950;-70
2022/12/07 11:53:07;;;;;;;;;47.75;41.00;;;;;7.44;100.00;101800.56;4941352;28;49727;-73
2022/12/07 11:55:42;;;;;;;;;56.75;45.50;;;;;7.45;100.00;101799.75;4932539;28;49992;-75
2022/12/07 11:58:49;;;;;;;;;40.25;35.25;;;;;7.39;100.00;101795.09;4932324;28;49784;-72
2022/12/07 12:01:17;;;;;;;;;50.00;42.25;;;;;7.51;100.00;101793.91;4921985;28;49663;-67
2022/12/07 12:03:49;;;;;;;;;41.00;38.25;;;;;7.49;100.00;101783.41;4934358;28;49926;-67
2022/12/07 12:06:14;;;;;;;;;44.50;38.75;;;;;7.44;100.00;101772.75;4941745;28;50871;-66
2022/12/07 12:08:46;;;;;;;;;46.50;38.50;;;;;7.53;100.00;101776.59;4932781;28;49815;-70
2022/12/07 12:11:30;;;;;;;;;45.75;41.25;;;;;7.54;100.00;101775.81;4932862;28;49726;-73
2022/12/07 12:14:14;;;;;;;;;44.00;39.25;;;;;7.58;100.00;101762.94;4932513;28;49728;-67
2022/12/07 12:16:58;;;;;;;;;39.50;37.00;;;;;7.59;100.00;101764.72;4932449;28;51007;-75
2022/12/07 12:19:27;;;;;;;;;48.00;41.50;;;;;7.40;100.00;101731.59;4932543;28;49757;-71
2022/12/07 12:22:06;;;;;;;;;47.75;40.75;;;;;6.99;100.00;101656.44;4949010;28;49836;-72
2022/12/07 12:24:37;;;;;;;;;51.00;41.50;;;;;6.38;100.00;101542.94;4932366;28;49827;-72
2022/12/07 12:27:09;;;;;;;;;51.75;40.25;;;;;7.67;100.00;101759.88;4938146;28;50903;-71
2022/12/07 12:29:38;;;;;;;;;51.50;41.00;;;;;7.14;100.00;101671.94;4933873;28;49840;-72
2022/12/07 12:32:23;;;;;;;;;40.50;38.75;;;;;7.72;100.00;101758.38;4935561;28;49821;-70
2022/12/07 12:34:58;;;;;;;;;43.00;38.00;;;;;7.73;100.00;101754.97;4933390;28;50152;-70
2022/12/07 12:37:32;;;;;;;;;45.00;39.50;;;;;7.79;100.00;101755.25;4933911;28;49963;-71
2022/12/07 12:40:15;;;;;;;;;45.75;37.00;;;;;7.84;100.00;101755.47;4942185;28;49722;-70
2022/12/07 12:42:53;;;;;;;;;39.50;34.00;;;;;7.56;100.00;101691.44;4932880;28;49813;-69
2022/12/07 12:45:24;;;;;;;;;45.50;35.50;;;;;8.00;100.00;101747.50;4952238;28;49599;-69
2022/12/07 12:48:24;;;;;;;;;41.50;34.25;;;;;8.05;100.00;101738.19;4946453;28;50096;-67
2022/12/07 12:51:28;;;;;;;;;38.25;36.50;;;;;8.03;100.00;101737.22;4934720;28;49796;-68
2022/12/07 12:54:04;;;;;;;;;36.25;31.75;;;;;8.05;100.00;101735.56;4937844;28;49780;-67
2022/12/07 12:56:40;;;;;;;;;32.25;31.00;;;;;7.83;100.00;101696.19;4942988;28;49882;-72
2022/12/07 12:59:21;;;;;;;;;29.75;24.50;;;;;8.10;100.00;101730.53;4937491;28;50889;-68
2022/12/07 13:01:48;;;;;;;;;32.75;27.50;;;;;7.59;100.00;101673.28;4935118;28;49777;-75
2022/12/07 13:04:22;;;;;;;;;24.25;22.50;;;;;8.09;100.00;101727.00;4963178;28;50234;-67
2022/12/07 13:06:48;;;;;;;;;19.25;18.50;;;;;7.93;100.00;101701.91;4937792;28;50110;-68
2022/12/07 13:09:39;;;;;;;;;22.75;22.75;;;;;8.11;100.00;101724.50;4950441;28;50389;-69
2022/12/07 13:12:13;;;;;;;;;28.75;21.50;;;;;8.11;100.00;101717.56;4953705;28;50433;-68
2022/12/07 13:14:41;;;;;;;;;25.50;25.25;;;;;8.13;100.00;101715.00;4952855;28;50011;-68
2022/12/07 13:17:11;;;;;;;;;28.00;24.25;;;;;7.98;100.00;101689.91;4952190;28;49733;-69
2022/12/07 13:19:42;;;;;;;;;29.75;24.75;;;;;8.17;100.00;101714.28;4951011;28;50328;-67
2022/12/07 13:22:29;;;;;;;;;30.75;28.00;;;;;8.30;100.00;101714.06;4940842;28;50099;-68
2022/12/07 13:25:19;;;;;;;;;29.50;27.25;;;;;8.29;100.00;101696.53;4934479;28;49721;-68
2022/12/07 13:27:55;;;;;;;;;26.50;26.00;;;;;8.39;100.00;101704.00;4957576;28;49639;-68
2022/12/07 13:30:21;;;;;;;;;31.50;26.50;;;;;8.48;100.00;101707.03;4948874;28;51395;-70
2022/12/07 13:32:55;;;;;;;;;32.75;21.75;;;;;8.53;100.00;101702.91;4934626;28;49554;-68
2022/12/07 13:35:35;;;;;;;;;28.00;25.00;;;;;8.51;100.00;101682.75;4953526;28;49881;-68
2022/12/07 13:38:23;;;;;;;;;25.25;24.50;;;;;8.35;100.00;101664.56;4951887;28;49837;-68
2022/12/07 13:41:14;;;;;;;;;24.50;22.25;;;;;8.45;100.00;101670.25;4948047;28;49783;-68
2022/12/07 13:43:53;;;;;;;;;31.50;26.50;;;;;8.46;100.00;101687.75;4951208;28;49734;-68
2022/12/07 13:46:35;;;;;;;;;27.00;24.25;;;;;8.38;100.00;101676.03;4945886;28;50391;-64
2022/12/07 13:49:00;;;;;;;;;21.00;18.25;;;;;8.15;100.00;101642.72;4943471;28;49828;-69
2022/12/07 13:51:28;;;;;;;;;30.00;25.25;;;;;8.18;100.00;101645.47;4954311;28;50478;-69
2022/12/07 13:54:00;;;;;;;;;32.00;27.00;;;;;8.36;100.00;101674.19;4952660;28;49601;-68
2022/12/07 13:56:36;;;;;;;;;28.25;25.50;;;;;8.31;100.00;101666.13;4952299;28;49927;-75
2022/12/07 13:59:02;;;;;;;;;27.50;25.50;;;;;8.25;100.00;101658.00;4940793;28;49948;-74
2022/12/07 14:01:30;;;;;;;;;20.25;19.75;;;;;8.23;100.00;101664.88;4946827;28;50417;-68
2022/12/07 14:04:15;;;;;;;;;29.00;25.75;;;;;8.10;100.00;101644.22;4951453;28;49920;-67
2022/12/07 14:06:49;;;;;;;;;19.00;17.00;;;;;8.20;100.00;101654.28;4963461;28;50803;-67
2022/12/07 14:09:19;;;;;;;;;18.50;13.25;;;;;8.20;100.00;101649.03;4950296;28;50401;-68
2022/12/07 14:11:47;;;;;;;;;21.25;16.00;;;;;8.11;100.00;101639.09;4949504;28;49788;-69
2022/12/07 14:14:20;;;;;;;;;20.00;16.25;;;;;8.15;100.00;101643.63;4950740;28;49871;-69
2022/12/07 14:16:56;;;;;;;;;16.50;16.00;;;;;7.86;100.00;101596.97;4955351;28;49927;-68
2022/12/07 14:19:40;;;;;;;;;21.50;19.50;;;;;8.15;100.00;101643.63;4965481;28;49653;-68
2022/12/07 14:22:28;;;;;;;;;27.25;23.50;;;;;8.07;100.00;101623.19;4961644;28;50341;-75
2022/12/07 14:25:17;;;;;;;;;21.75;19.25;;;;;7.82;100.00;101585.50;4953280;28;50389;-70
2022/12/07 14:27:51;;;;;;;;;20.75;20.75;;;;;7.76;100.00;101585.22;4955864;28;49384;-71
2022/12/07 14:30:17;;;;;;;;;23.00;21.50;;;;;8.16;100.00;101644.50;4957073;28;49675;-68
2022/12/07 14:32:48;;;;;;;;;28.75;24.50;;;;;7.93;100.00;101610.41;4945031;28;50950;-68
2022/12/07 14:35:15;;;;;;;;;28.50;26.25;;;;;7.96;100.00;101602.69;4948829;28;49900;-69
2022/12/07 14:37:42;;;;;;;;;17.75;17.25;;;;;8.08;100.00;101625.84;4959215;28;49823;-69
2022/12/07 14:40:17;;;;;;;;;23.25;18.50;;;;;7.99;100.00;101586.22;4933751;28;49988;-71
2022/12/07 14:42:43;;;;;;;;;19.50;18.00;;;;;8.22;100.00;101619.53;4957999;28;49867;-72
2022/12/07 14:45:15;;;;;;;;;16.25;14.75;;;;;8.10;100.00;101586.69;4962023;28;49153;-71
2022/12/07 14:47:40;;;;;;;;;20.00;18.75;;;;;8.57;100.00;101636.75;4976959;28;49747;-68
2022/12/07 14:50:06;;;;;;;;;36.50;33.00;;;;;8.56;100.00;101629.75;4960707;28;50031;-70
2022/12/07 14:52:32;;;;;;;;;23.25;21.75;;;;;8.68;100.00;101652.03;4954215;28;50600;-71
2022/12/07 14:54:58;;;;;;;;;22.75;19.75;;;;;8.62;100.00;101629.13;4962450;28;49663;-68
2022/12/07 14:57:23;;;;;;;;;27.50;21.25;;;;;8.66;100.00;101622.28;4958450;28;59738;-66
2022/12/07 14:59:48;;;;;;;;;27.00;24.50;;;;;8.38;100.00;101574.00;4947977;28;49832;-67
2022/12/07 15:02:15;;;;;;;;;18.25;17.75;;;;;8.67;100.00;101627.56;4962443;28;71770;-69
2022/12/07 15:04:41;;;;;;;;;23.00;21.00;;;;;8.60;100.00;101623.84;4961234;28;49442;-68
2022/12/07 15:07:20;;;;;;;;;19.25;19.00;;;;;8.35;100.00;101589.59;4956396;28;49339;-68
2022/12/07 15:09:46;;;;;;;;;21.75;19.50;;;;;8.48;100.00;101628.53;4948278;28;49714;-74
2022/12/07 15:12:11;;;;;;;;;18.25;18.00;;;;;8.44;100.00;101623.09;4960915;28;50498;-67
2022/12/07 15:14:37;;;;;;;;;20.50;19.25;;;;;8.26;100.00;101597.91;4949284;28;49737;-67
2022/12/07 15:17:02;;;;;;;;;21.75;18.50;;;;;8.17;100.00;101583.53;4942826;28;49862;-68
2022/12/07 15:19:28;;;;;;;;;26.25;25.75;;;;;8.30;100.00;101623.38;4953346;28;49786;-68
2022/12/07 15:21:59;;;;;;;;;21.75;20.00;;;;;8.05;100.00;101591.72;4961048;28;49894;-75
2022/12/07 15:24:25;;;;;;;;;21.25;18.75;;;;;8.18;100.00;101624.53;4954919;28;49592;-81
